sensor_id;sensor_type;location;lat;lon;timestamp;P1;durP1;ratioP1;P2;durP2;ratioP2
48040;SDS011;33815;48.386;11.738;2022-09-30T00:00:37;19.10;;;12.75;;
48040;SDS011;33815;48.386;11.738;2022-09-30T00:03:02;18.85;;;12.82;;
48040;SDS011;33815;48.386;11.738;2022-09-30T00:05:28;15.77;;;11.85;;
48040;SDS011;33815;48.386;11.738;2022-09-30T00:07:53;16.40;;;11.77;;
48040;SDS011;33815;48.386;11.738;2022-09-30T00:10:18;19.48;;;12.23;;
48040;SDS011;33815;48.386;11.738;2022-09-30T00:12:43;23.88;;;14.05;;
48040;SDS011;33815;48.386;11.738;2022-09-30T00:15:10;18.80;;;13.48;;
48040;SDS011;33815;48.386;11.738;2022-09-30T00:17:35;22.40;;;14.57;;
48040;SDS011;33815;48.386;11.738;2022-09-30T00:20:01;16.17;;;12.00;;
48040;SDS011;33815;48.386;11.738;2022-09-30T00:22:26;14.68;;;11.23;;
48040;SDS011;33815;48.386;11.738;2022-09-30T00:24:51;19.48;;;12.63;;
48040;SDS011;33815;48.386;11.738;2022-09-30T00:27:17;18.95;;;11.55;;
48040;SDS011;33815;48.386;11.738;2022-09-30T00:29:43;18.23;;;11.73;;
48040;SDS011;33815;48.386;11.738;2022-09-30T00:32:09;15.82;;;12.40;;
48040;SDS011;33815;48.386;11.738;2022-09-30T00:34:35;18.25;;;13.52;;
48040;SDS011;33815;48.386;11.738;2022-09-30T00:37:00;20.15;;;12.85;;
48040;SDS011;33815;48.386;11.738;2022-09-30T00:39:27;22.13;;;13.65;;
48040;SDS011;33815;48.386;11.738;2022-09-30T00:42:00;20.23;;;13.57;;
48040;SDS011;33815;48.386;11.738;2022-09-30T00:44:43;17.73;;;13.25;;
48040;SDS011;33815;48.386;11.738;2022-09-30T00:47:30;21.23;;;14.05;;
48040;SDS011;33815;48.386;11.738;2022-09-30T00:50:18;19.65;;;13.48;;
48040;SDS011;33815;48.386;11.738;2022-09-30T00:52:53;20.42;;;13.13;;
48040;SDS011;33815;48.386;11.738;2022-09-30T00:55:23;20.55;;;14.98;;
48040;SDS011;33815;48.386;11.738;2022-09-30T00:57:57;19.67;;;13.48;;
48040;SDS011;33815;48.386;11.738;2022-09-30T01:00:25;17.63;;;13.40;;
48040;SDS011;33815;48.386;11.738;2022-09-30T01:02:51;17.27;;;12.82;;
48040;SDS011;33815;48.386;11.738;2022-09-30T01:05:17;20.92;;;13.77;;
48040;SDS011;33815;48.386;11.738;2022-09-30T01:07:42;17.85;;;12.65;;
48040;SDS011;33815;48.386;11.738;2022-09-30T01:10:08;25.17;;;12.60;;
48040;SDS011;33815;48.386;11.738;2022-09-30T01:12:33;18.15;;;13.20;;
48040;SDS011;33815;48.386;11.738;2022-09-30T01:14:58;21.42;;;13.18;;
48040;SDS011;33815;48.386;11.738;2022-09-30T01:34:24;18.02;;;11.20;;
48040;SDS011;33815;48.386;11.738;2022-09-30T01:37:19;15.88;;;11.38;;
48040;SDS011;33815;48.386;11.738;2022-09-30T01:39:50;16.08;;;12.82;;
48040;SDS011;33815;48.386;11.738;2022-09-30T01:42:30;20.98;;;12.15;;
48040;SDS011;33815;48.386;11.738;2022-09-30T01:45:17;15.02;;;11.13;;
48040;SDS011;33815;48.386;11.738;2022-09-30T01:47:55;22.52;;;14.02;;
48040;SDS011;33815;48.386;11.738;2022-09-30T01:50:22;17.35;;;12.38;;
48040;SDS011;33815;48.386;11.738;2022-09-30T01:55:57;16.05;;;11.52;;
48040;SDS011;33815;48.386;11.738;2022-09-30T02:01:29;16.80;;;11.82;;
48040;SDS011;33815;48.386;11.738;2022-09-30T02:04:01;19.33;;;11.60;;
48040;SDS011;33815;48.386;11.738;2022-09-30T02:06:32;21.95;;;12.43;;
48040;SDS011;33815;48.386;11.738;2022-09-30T02:09:06;17.35;;;11.32;;
48040;SDS011;33815;48.386;11.738;2022-09-30T02:11:37;16.30;;;10.93;;
48040;SDS011;33815;48.386;11.738;2022-09-30T02:16:48;18.70;;;12.27;;
48040;SDS011;33815;48.386;11.738;2022-09-30T02:19:20;20.05;;;13.18;;
48040;SDS011;33815;48.386;11.738;2022-09-30T02:21:51;17.63;;;12.25;;
48040;SDS011;33815;48.386;11.738;2022-09-30T02:24:24;16.65;;;11.38;;
48040;SDS011;33815;48.386;11.738;2022-09-30T02:26:52;17.42;;;11.73;;
48040;SDS011;33815;48.386;11.738;2022-09-30T02:29:22;17.25;;;12.00;;
48040;SDS011;33815;48.386;11.738;2022-09-30T02:31:54;16.40;;;11.55;;
48040;SDS011;33815;48.386;11.738;2022-09-30T02:34:25;16.35;;;10.75;;
48040;SDS011;33815;48.386;11.738;2022-09-30T02:39:30;17.80;;;12.60;;
48040;SDS011;33815;48.386;11.738;2022-09-30T02:42:06;17.77;;;11.73;;
48040;SDS011;33815;48.386;11.738;2022-09-30T02:44:37;16.25;;;11.98;;
48040;SDS011;33815;48.386;11.738;2022-09-30T02:47:14;19.63;;;12.95;;
48040;SDS011;33815;48.386;11.738;2022-09-30T02:49:46;17.25;;;11.68;;
48040;SDS011;33815;48.386;11.738;2022-09-30T02:55:01;18.35;;;12.80;;
48040;SDS011;33815;48.386;11.738;2022-09-30T03:00:19;15.90;;;11.27;;
48040;SDS011;33815;48.386;11.738;2022-09-30T03:02:44;16.45;;;11.90;;
48040;SDS011;33815;48.386;11.738;2022-09-30T03:05:10;16.33;;;12.68;;
48040;SDS011;33815;48.386;11.738;2022-09-30T03:07:35;18.95;;;12.35;;
48040;SDS011;33815;48.386;11.738;2022-09-30T03:10:05;16.52;;;12.70;;
48040;SDS011;33815;48.386;11.738;2022-09-30T03:15:30;18.85;;;11.45;;
48040;SDS011;33815;48.386;11.738;2022-09-30T03:18:22;22.48;;;11.98;;
48040;SDS011;33815;48.386;11.738;2022-09-30T03:21:04;15.15;;;11.27;;
48040;SDS011;33815;48.386;11.738;2022-09-30T03:26:32;17.90;;;11.93;;
48040;SDS011;33815;48.386;11.738;2022-09-30T03:37:27;15.48;;;11.98;;
48040;SDS011;33815;48.386;11.738;2022-09-30T03:40:06;18.10;;;11.82;;
48040;SDS011;33815;48.386;11.738;2022-09-30T03:42:45;16.58;;;12.27;;
48040;SDS011;33815;48.386;11.738;2022-09-30T03:45:30;20.95;;;12.65;;
48040;SDS011;33815;48.386;11.738;2022-09-30T03:48:03;19.27;;;13.25;;
48040;SDS011;33815;48.386;11.738;2022-09-30T03:50:32;18.95;;;12.52;;
48040;SDS011;33815;48.386;11.738;2022-09-30T03:53:00;21.15;;;12.57;;
48040;SDS011;33815;48.386;11.738;2022-09-30T03:55:26;19.52;;;11.85;;
48040;SDS011;33815;48.386;11.738;2022-09-30T03:57:52;20.65;;;12.05;;
48040;SDS011;33815;48.386;11.738;2022-09-30T04:00:18;18.80;;;11.85;;
48040;SDS011;33815;48.386;11.738;2022-09-30T04:02:43;19.67;;;12.07;;
48040;SDS011;33815;48.386;11.738;2022-09-30T04:05:10;19.40;;;12.88;;
48040;SDS011;33815;48.386;11.738;2022-09-30T04:07:35;19.80;;;13.18;;
48040;SDS011;33815;48.386;11.738;2022-09-30T04:10:01;18.80;;;12.90;;
48040;SDS011;33815;48.386;11.738;2022-09-30T04:12:26;19.83;;;12.13;;
48040;SDS011;33815;48.386;11.738;2022-09-30T04:14:52;19.77;;;11.73;;
48040;SDS011;33815;48.386;11.738;2022-09-30T04:17:17;21.17;;;12.68;;
48040;SDS011;33815;48.386;11.738;2022-09-30T04:19:42;16.85;;;11.43;;
48040;SDS011;33815;48.386;11.738;2022-09-30T04:22:08;23.27;;;12.27;;
48040;SDS011;33815;48.386;11.738;2022-09-30T04:24:34;16.23;;;11.38;;
48040;SDS011;33815;48.386;11.738;2022-09-30T04:27:00;19.70;;;12.02;;
48040;SDS011;33815;48.386;11.738;2022-09-30T04:29:26;19.35;;;10.75;;
48040;SDS011;33815;48.386;11.738;2022-09-30T04:31:51;18.23;;;10.93;;
48040;SDS011;33815;48.386;11.738;2022-09-30T04:34:16;21.65;;;11.80;;
48040;SDS011;33815;48.386;11.738;2022-09-30T04:36:42;19.00;;;12.23;;
48040;SDS011;33815;48.386;11.738;2022-09-30T04:39:07;15.88;;;10.55;;
48040;SDS011;33815;48.386;11.738;2022-09-30T04:41:33;13.88;;;10.30;;
48040;SDS011;33815;48.386;11.738;2022-09-30T04:43:58;15.48;;;11.02;;
48040;SDS011;33815;48.386;11.738;2022-09-30T04:46:29;19.55;;;11.80;;
48040;SDS011;33815;48.386;11.738;2022-09-30T04:48:55;14.85;;;10.88;;
48040;SDS011;33815;48.386;11.738;2022-09-30T04:51:21;18.25;;;10.98;;
48040;SDS011;33815;48.386;11.738;2022-09-30T04:53:46;20.27;;;12.47;;
48040;SDS011;33815;48.386;11.738;2022-09-30T04:56:13;15.15;;;10.18;;
48040;SDS011;33815;48.386;11.738;2022-09-30T04:58:40;18.15;;;11.18;;
48040;SDS011;33815;48.386;11.738;2022-09-30T05:01:07;18.35;;;11.32;;
48040;SDS011;33815;48.386;11.738;2022-09-30T05:03:37;16.13;;;11.25;;
48040;SDS011;33815;48.386;11.738;2022-09-30T05:06:03;19.75;;;11.70;;
48040;SDS011;33815;48.386;11.738;2022-09-30T05:08:29;17.58;;;12.45;;
48040;SDS011;33815;48.386;11.738;2022-09-30T05:10:59;17.75;;;11.48;;
48040;SDS011;33815;48.386;11.738;2022-09-30T05:13:33;17.83;;;10.93;;
48040;SDS011;33815;48.386;11.738;2022-09-30T05:16:00;17.77;;;10.35;;
48040;SDS011;33815;48.386;11.738;2022-09-30T05:18:27;18.38;;;10.30;;
48040;SDS011;33815;48.386;11.738;2022-09-30T05:20:53;18.88;;;10.88;;
48040;SDS011;33815;48.386;11.738;2022-09-30T05:23:21;21.92;;;12.48;;
48040;SDS011;33815;48.386;11.738;2022-09-30T05:25:48;21.85;;;13.02;;
48040;SDS011;33815;48.386;11.738;2022-09-30T05:28:14;21.25;;;11.27;;
48040;SDS011;33815;48.386;11.738;2022-09-30T05:30:39;19.35;;;13.30;;
48040;SDS011;33815;48.386;11.738;2022-09-30T05:33:06;21.35;;;13.02;;
48040;SDS011;33815;48.386;11.738;2022-09-30T05:35:31;20.98;;;13.25;;
48040;SDS011;33815;48.386;11.738;2022-09-30T05:37:57;21.98;;;14.30;;
48040;SDS011;33815;48.386;11.738;2022-09-30T05:40:24;20.35;;;12.63;;
48040;SDS011;33815;48.386;11.738;2022-09-30T05:42:49;20.50;;;12.80;;
48040;SDS011;33815;48.386;11.738;2022-09-30T05:45:14;29.20;;;14.77;;
48040;SDS011;33815;48.386;11.738;2022-09-30T05:47:40;24.92;;;13.98;;
48040;SDS011;33815;48.386;11.738;2022-09-30T05:50:06;25.35;;;13.77;;
48040;SDS011;33815;48.386;11.738;2022-09-30T05:52:31;20.50;;;13.88;;
48040;SDS011;33815;48.386;11.738;2022-09-30T05:54:57;23.08;;;14.27;;
48040;SDS011;33815;48.386;11.738;2022-09-30T05:57:26;20.98;;;13.85;;
48040;SDS011;33815;48.386;11.738;2022-09-30T05:59:53;22.25;;;13.02;;
48040;SDS011;33815;48.386;11.738;2022-09-30T06:02:19;25.02;;;14.48;;
48040;SDS011;33815;48.386;11.738;2022-09-30T06:04:44;20.73;;;14.30;;
48040;SDS011;33815;48.386;11.738;2022-09-30T06:07:09;21.57;;;13.37;;
48040;SDS011;33815;48.386;11.738;2022-09-30T06:09:34;21.00;;;12.63;;
48040;SDS011;33815;48.386;11.738;2022-09-30T06:12:00;21.30;;;12.52;;
48040;SDS011;33815;48.386;11.738;2022-09-30T06:14:25;19.95;;;12.68;;
48040;SDS011;33815;48.386;11.738;2022-09-30T06:16:52;21.75;;;13.00;;
48040;SDS011;33815;48.386;11.738;2022-09-30T06:19:18;22.10;;;14.10;;
48040;SDS011;33815;48.386;11.738;2022-09-30T06:21:43;21.65;;;13.88;;
48040;SDS011;33815;48.386;11.738;2022-09-30T06:24:08;24.50;;;14.10;;
48040;SDS011;33815;48.386;11.738;2022-09-30T06:26:37;26.63;;;15.23;;
48040;SDS011;33815;48.386;11.738;2022-09-30T06:29:02;20.60;;;12.73;;
48040;SDS011;33815;48.386;11.738;2022-09-30T06:31:28;19.02;;;11.80;;
48040;SDS011;33815;48.386;11.738;2022-09-30T06:33:54;21.33;;;14.18;;
48040;SDS011;33815;48.386;11.738;2022-09-30T06:36:21;31.40;;;16.85;;
48040;SDS011;33815;48.386;11.738;2022-09-30T06:38:46;24.15;;;15.25;;
48040;SDS011;33815;48.386;11.738;2022-09-30T06:41:15;23.42;;;14.70;;
48040;SDS011;33815;48.386;11.738;2022-09-30T06:43:40;23.52;;;13.70;;
48040;SDS011;33815;48.386;11.738;2022-09-30T06:46:06;23.58;;;14.10;;
48040;SDS011;33815;48.386;11.738;2022-09-30T06:48:31;28.92;;;16.45;;
48040;SDS011;33815;48.386;11.738;2022-09-30T06:50:58;32.40;;;18.58;;
48040;SDS011;33815;48.386;11.738;2022-09-30T06:53:24;34.33;;;19.83;;
48040;SDS011;33815;48.386;11.738;2022-09-30T06:55:54;42.85;;;23.58;;
48040;SDS011;33815;48.386;11.738;2022-09-30T06:58:21;36.15;;;20.00;;
48040;SDS011;33815;48.386;11.738;2022-09-30T07:00:58;35.95;;;20.98;;
48040;SDS011;33815;48.386;11.738;2022-09-30T07:03:29;35.60;;;21.05;;
48040;SDS011;33815;48.386;11.738;2022-09-30T07:05:57;32.38;;;20.15;;
48040;SDS011;33815;48.386;11.738;2022-09-30T07:08:27;32.13;;;18.20;;
48040;SDS011;33815;48.386;11.738;2022-09-30T07:10:55;29.17;;;17.90;;
48040;SDS011;33815;48.386;11.738;2022-09-30T07:13:24;28.95;;;17.23;;
48040;SDS011;33815;48.386;11.738;2022-09-30T07:15:49;23.85;;;16.42;;
48040;SDS011;33815;48.386;11.738;2022-09-30T07:18:18;25.27;;;16.08;;
48040;SDS011;33815;48.386;11.738;2022-09-30T07:20:51;22.75;;;15.52;;
48040;SDS011;33815;48.386;11.738;2022-09-30T07:23:18;17.10;;;11.57;;
48040;SDS011;33815;48.386;11.738;2022-09-30T07:25:55;12.77;;;10.05;;
48040;SDS011;33815;48.386;11.738;2022-09-30T07:28:23;13.57;;;9.77;;
48040;SDS011;33815;48.386;11.738;2022-09-30T07:30:55;13.13;;;9.50;;
48040;SDS011;33815;48.386;11.738;2022-09-30T07:33:21;11.23;;;9.00;;
48040;SDS011;33815;48.386;11.738;2022-09-30T07:35:51;12.52;;;9.27;;
48040;SDS011;33815;48.386;11.738;2022-09-30T07:38:18;17.17;;;10.93;;
48040;SDS011;33815;48.386;11.738;2022-09-30T07:40:58;13.90;;;10.05;;
48040;SDS011;33815;48.386;11.738;2022-09-30T07:43:25;16.45;;;10.25;;
48040;SDS011;33815;48.386;11.738;2022-09-30T07:46:03;13.85;;;10.85;;
48040;SDS011;33815;48.386;11.738;2022-09-30T07:48:29;10.48;;;9.20;;
48040;SDS011;33815;48.386;11.738;2022-09-30T07:51:22;11.13;;;9.10;;
48040;SDS011;33815;48.386;11.738;2022-09-30T07:53:52;10.30;;;8.32;;
48040;SDS011;33815;48.386;11.738;2022-09-30T07:56:19;11.23;;;8.57;;
48040;SDS011;33815;48.386;11.738;2022-09-30T07:58:46;10.75;;;8.93;;
48040;SDS011;33815;48.386;11.738;2022-09-30T08:01:11;9.85;;;8.77;;
48040;SDS011;33815;48.386;11.738;2022-09-30T08:03:38;13.10;;;8.35;;
48040;SDS011;33815;48.386;11.738;2022-09-30T08:06:13;8.38;;;7.20;;
48040;SDS011;33815;48.386;11.738;2022-09-30T08:08:40;7.63;;;6.68;;
48040;SDS011;33815;48.386;11.738;2022-09-30T08:11:08;8.57;;;7.07;;
48040;SDS011;33815;48.386;11.738;2022-09-30T08:13:34;9.65;;;7.55;;
48040;SDS011;33815;48.386;11.738;2022-09-30T08:16:00;8.38;;;6.38;;
48040;SDS011;33815;48.386;11.738;2022-09-30T08:18:26;8.80;;;6.65;;
48040;SDS011;33815;48.386;11.738;2022-09-30T08:20:54;7.55;;;6.55;;
48040;SDS011;33815;48.386;11.738;2022-09-30T08:23:20;5.95;;;4.93;;
48040;SDS011;33815;48.386;11.738;2022-09-30T08:25:45;4.90;;;4.40;;
48040;SDS011;33815;48.386;11.738;2022-09-30T08:28:11;3.70;;;2.95;;
48040;SDS011;33815;48.386;11.738;2022-09-30T08:30:36;3.22;;;2.92;;
48040;SDS011;33815;48.386;11.738;2022-09-30T08:33:02;3.92;;;3.58;;
48040;SDS011;33815;48.386;11.738;2022-09-30T08:35:28;4.10;;;3.70;;
48040;SDS011;33815;48.386;11.738;2022-09-30T08:37:53;5.45;;;4.00;;
48040;SDS011;33815;48.386;11.738;2022-09-30T08:40:23;4.28;;;3.70;;
48040;SDS011;33815;48.386;11.738;2022-09-30T08:43:04;3.50;;;3.20;;
48040;SDS011;33815;48.386;11.738;2022-09-30T08:45:40;4.75;;;4.13;;
48040;SDS011;33815;48.386;11.738;2022-09-30T08:51:13;6.13;;;4.75;;
48040;SDS011;33815;48.386;11.738;2022-09-30T08:53:51;4.80;;;4.32;;
48040;SDS011;33815;48.386;11.738;2022-09-30T08:56:21;5.90;;;5.30;;
48040;SDS011;33815;48.386;11.738;2022-09-30T08:58:50;6.53;;;4.75;;
48040;SDS011;33815;48.386;11.738;2022-09-30T09:01:31;5.22;;;4.65;;
48040;SDS011;33815;48.386;11.738;2022-09-30T09:03:59;5.65;;;4.95;;
48040;SDS011;33815;48.386;11.738;2022-09-30T09:06:30;7.55;;;5.28;;
48040;SDS011;33815;48.386;11.738;2022-09-30T09:09:24;6.68;;;4.97;;
48040;SDS011;33815;48.386;11.738;2022-09-30T09:12:21;6.43;;;4.40;;
48040;SDS011;33815;48.386;11.738;2022-09-30T09:15:56;6.35;;;3.97;;
48040;SDS011;33815;48.386;11.738;2022-09-30T09:20:54;2.58;;;2.35;;
48040;SDS011;33815;48.386;11.738;2022-09-30T09:23:21;2.50;;;2.05;;
48040;SDS011;33815;48.386;11.738;2022-09-30T09:25:48;2.33;;;2.13;;
48040;SDS011;33815;48.386;11.738;2022-09-30T09:28:24;3.00;;;2.80;;
48040;SDS011;33815;48.386;11.738;2022-09-30T09:30:57;8.50;;;4.05;;
48040;SDS011;33815;48.386;11.738;2022-09-30T09:33:27;6.65;;;3.50;;
48040;SDS011;33815;48.386;11.738;2022-09-30T09:36:00;3.90;;;2.72;;
48040;SDS011;33815;48.386;11.738;2022-09-30T09:38:56;15.05;;;13.45;;
48040;SDS011;33815;48.386;11.738;2022-09-30T09:41:38;56.60;;;27.40;;
48040;SDS011;33815;48.386;11.738;2022-09-30T09:44:29;57.47;;;30.63;;
48040;SDS011;33815;48.386;11.738;2022-09-30T09:47:08;12.02;;;8.05;;
48040;SDS011;33815;48.386;11.738;2022-09-30T09:49:40;3.25;;;2.95;;
48040;SDS011;33815;48.386;11.738;2022-09-30T09:54:57;2.60;;;2.40;;
48040;SDS011;33815;48.386;11.738;2022-09-30T09:57:26;3.50;;;3.17;;
48040;SDS011;33815;48.386;11.738;2022-09-30T10:00:04;3.42;;;2.92;;
48040;SDS011;33815;48.386;11.738;2022-09-30T10:03:00;3.35;;;3.05;;
48040;SDS011;33815;48.386;11.738;2022-09-30T10:05:37;6.28;;;4.43;;
48040;SDS011;33815;48.386;11.738;2022-09-30T10:08:16;4.03;;;2.28;;
48040;SDS011;33815;48.386;11.738;2022-09-30T10:10:53;2.28;;;2.05;;
48040;SDS011;33815;48.386;11.738;2022-09-30T10:13:22;2.10;;;1.75;;
48040;SDS011;33815;48.386;11.738;2022-09-30T10:15:50;4.70;;;1.95;;
48040;SDS011;33815;48.386;11.738;2022-09-30T10:18:19;3.97;;;3.58;;
48040;SDS011;33815;48.386;11.738;2022-09-30T10:20:50;2.58;;;2.00;;
48040;SDS011;33815;48.386;11.738;2022-09-30T10:23:38;3.08;;;2.83;;
48040;SDS011;33815;48.386;11.738;2022-09-30T10:28:46;2.45;;;2.25;;
48040;SDS011;33815;48.386;11.738;2022-09-30T10:34:00;2.08;;;1.88;;
48040;SDS011;33815;48.386;11.738;2022-09-30T10:36:48;2.13;;;1.95;;
48040;SDS011;33815;48.386;11.738;2022-09-30T10:39:18;2.10;;;1.90;;
48040;SDS011;33815;48.386;11.738;2022-09-30T10:41:51;1.95;;;1.77;;
48040;SDS011;33815;48.386;11.738;2022-09-30T10:44:40;2.45;;;1.73;;
48040;SDS011;33815;48.386;11.738;2022-09-30T10:49:39;1.23;;;1.13;;
48040;SDS011;33815;48.386;11.738;2022-09-30T10:52:17;7.35;;;4.95;;
48040;SDS011;33815;48.386;11.738;2022-09-30T10:54:50;2.10;;;1.90;;
48040;SDS011;33815;48.386;11.738;2022-09-30T10:59:51;1.75;;;1.65;;
48040;SDS011;33815;48.386;11.738;2022-09-30T11:02:40;1.80;;;1.50;;
48040;SDS011;33815;48.386;11.738;2022-09-30T11:10:41;1.80;;;1.70;;
48040;SDS011;33815;48.386;11.738;2022-09-30T11:22:08;1.80;;;1.70;;
48040;SDS011;33815;48.386;11.738;2022-09-30T11:24:41;2.08;;;1.40;;
48040;SDS011;33815;48.386;11.738;2022-09-30T11:41:01;1.80;;;1.65;;
48040;SDS011;33815;48.386;11.738;2022-09-30T11:49:53;1.95;;;1.65;;
48040;SDS011;33815;48.386;11.738;2022-09-30T12:00:27;2.28;;;1.95;;
48040;SDS011;33815;48.386;11.738;2022-09-30T12:03:03;3.75;;;1.85;;
48040;SDS011;33815;48.386;11.738;2022-09-30T12:05:45;1.88;;;1.65;;
48040;SDS011;33815;48.386;11.738;2022-09-30T12:08:14;1.92;;;1.73;;
48040;SDS011;33815;48.386;11.738;2022-09-30T12:10:45;1.75;;;1.63;;
48040;SDS011;33815;48.386;11.738;2022-09-30T12:13:16;1.92;;;1.48;;
48040;SDS011;33815;48.386;11.738;2022-09-30T12:15:46;2.20;;;1.60;;
48040;SDS011;33815;48.386;11.738;2022-09-30T12:18:16;1.73;;;1.63;;
48040;SDS011;33815;48.386;11.738;2022-09-30T12:20:55;1.38;;;1.17;;
48040;SDS011;33815;48.386;11.738;2022-09-30T12:23:43;1.92;;;1.48;;
48040;SDS011;33815;48.386;11.738;2022-09-30T12:26:12;1.50;;;1.40;;
48040;SDS011;33815;48.386;11.738;2022-09-30T12:40:10;4.80;;;1.87;;
48040;SDS011;33815;48.386;11.738;2022-09-30T12:48:30;0.95;;;0.95;;
48040;SDS011;33815;48.386;11.738;2022-09-30T12:50:59;1.50;;;1.40;;
48040;SDS011;33815;48.386;11.738;2022-09-30T12:53:30;4.00;;;1.75;;
48040;SDS011;33815;48.386;11.738;2022-09-30T12:56:15;1.55;;;1.27;;
48040;SDS011;33815;48.386;11.738;2022-09-30T12:58:43;1.45;;;1.33;;
48040;SDS011;33815;48.386;11.738;2022-09-30T13:01:14;2.10;;;1.50;;
48040;SDS011;33815;48.386;11.738;2022-09-30T13:03:44;1.77;;;1.25;;
48040;SDS011;33815;48.386;11.738;2022-09-30T13:06:14;1.00;;;1.00;;
48040;SDS011;33815;48.386;11.738;2022-09-30T13:08:45;1.30;;;1.20;;
48040;SDS011;33815;48.386;11.738;2022-09-30T13:14:40;1.10;;;1.10;;
48040;SDS011;33815;48.386;11.738;2022-09-30T13:32:45;3.33;;;0.98;;
48040;SDS011;33815;48.386;11.738;2022-09-30T13:40:53;1.30;;;1.20;;
48040;SDS011;33815;48.386;11.738;2022-09-30T13:45:54;1.08;;;0.98;;
48040;SDS011;33815;48.386;11.738;2022-09-30T13:48:34;1.30;;;1.20;;
48040;SDS011;33815;48.386;11.738;2022-09-30T13:51:05;1.48;;;0.98;;
48040;SDS011;33815;48.386;11.738;2022-09-30T13:53:39;1.42;;;1.05;;
48040;SDS011;33815;48.386;11.738;2022-09-30T13:56:18;1.33;;;1.15;;
48040;SDS011;33815;48.386;11.738;2022-09-30T14:04:26;1.13;;;1.02;;
48040;SDS011;33815;48.386;11.738;2022-09-30T14:10:06;0.77;;;0.77;;
48040;SDS011;33815;48.386;11.738;2022-09-30T14:23:39;1.75;;;1.15;;
48040;SDS011;33815;48.386;11.738;2022-09-30T14:26:18;1.20;;;1.10;;
48040;SDS011;33815;48.386;11.738;2022-09-30T14:31:44;1.35;;;1.25;;
48040;SDS011;33815;48.386;11.738;2022-09-30T14:34:11;1.38;;;1.27;;
48040;SDS011;33815;48.386;11.738;2022-09-30T14:36:38;0.95;;;0.95;;
48040;SDS011;33815;48.386;11.738;2022-09-30T14:39:05;1.20;;;1.20;;
48040;SDS011;33815;48.386;11.738;2022-09-30T14:41:35;0.88;;;0.88;;
48040;SDS011;33815;48.386;11.738;2022-09-30T14:44:02;1.33;;;1.00;;
48040;SDS011;33815;48.386;11.738;2022-09-30T14:46:31;1.65;;;1.55;;
48040;SDS011;33815;48.386;11.738;2022-09-30T14:49:00;1.58;;;1.35;;
48040;SDS011;33815;48.386;11.738;2022-09-30T14:51:34;2.00;;;1.70;;
48040;SDS011;33815;48.386;11.738;2022-09-30T14:54:13;1.50;;;1.40;;
48040;SDS011;33815;48.386;11.738;2022-09-30T14:56:44;1.40;;;1.30;;
48040;SDS011;33815;48.386;11.738;2022-09-30T14:59:14;1.13;;;1.08;;
48040;SDS011;33815;48.386;11.738;2022-09-30T15:01:45;2.47;;;1.98;;
48040;SDS011;33815;48.386;11.738;2022-09-30T15:04:14;1.90;;;1.77;;
48040;SDS011;33815;48.386;11.738;2022-09-30T15:06:43;3.38;;;2.17;;
48040;SDS011;33815;48.386;11.738;2022-09-30T15:09:15;2.85;;;2.00;;
48040;SDS011;33815;48.386;11.738;2022-09-30T15:11:52;1.92;;;1.55;;
48040;SDS011;33815;48.386;11.738;2022-09-30T15:14:19;1.83;;;1.65;;
48040;SDS011;33815;48.386;11.738;2022-09-30T15:16:47;1.80;;;1.67;;
48040;SDS011;33815;48.386;11.738;2022-09-30T15:19:20;1.33;;;1.33;;
48040;SDS011;33815;48.386;11.738;2022-09-30T15:21:46;2.00;;;1.90;;
48040;SDS011;33815;48.386;11.738;2022-09-30T15:24:14;4.65;;;2.78;;
48040;SDS011;33815;48.386;11.738;2022-09-30T15:26:41;3.35;;;1.85;;
48040;SDS011;33815;48.386;11.738;2022-09-30T15:29:09;2.33;;;1.67;;
48040;SDS011;33815;48.386;11.738;2022-09-30T15:31:40;1.13;;;1.13;;
48040;SDS011;33815;48.386;11.738;2022-09-30T15:34:17;3.63;;;3.05;;
48040;SDS011;33815;48.386;11.738;2022-09-30T15:36:46;5.63;;;4.85;;
48040;SDS011;33815;48.386;11.738;2022-09-30T15:39:20;6.25;;;5.70;;
48040;SDS011;33815;48.386;11.738;2022-09-30T15:42:12;4.43;;;2.83;;
48040;SDS011;33815;48.386;11.738;2022-09-30T15:44:51;6.40;;;5.70;;
48040;SDS011;33815;48.386;11.738;2022-09-30T15:47:16;5.43;;;2.72;;
48040;SDS011;33815;48.386;11.738;2022-09-30T15:49:43;8.20;;;5.93;;
48040;SDS011;33815;48.386;11.738;2022-09-30T15:52:19;3.25;;;2.78;;
48040;SDS011;33815;48.386;11.738;2022-09-30T15:54:45;6.07;;;4.78;;
48040;SDS011;33815;48.386;11.738;2022-09-30T16:05:51;4.18;;;2.90;;
48040;SDS011;33815;48.386;11.738;2022-09-30T16:08:22;2.45;;;2.25;;
48040;SDS011;33815;48.386;11.738;2022-09-30T16:10:52;1.85;;;1.70;;
48040;SDS011;33815;48.386;11.738;2022-09-30T16:13:23;8.02;;;3.20;;
48040;SDS011;33815;48.386;11.738;2022-09-30T16:15:52;5.75;;;2.67;;
48040;SDS011;33815;48.386;11.738;2022-09-30T16:18:20;2.08;;;1.88;;
48040;SDS011;33815;48.386;11.738;2022-09-30T16:21:00;3.85;;;1.35;;
48040;SDS011;33815;48.386;11.738;2022-09-30T16:23:36;1.20;;;1.20;;
48040;SDS011;33815;48.386;11.738;2022-09-30T16:28:40;1.92;;;1.40;;
48040;SDS011;33815;48.386;11.738;2022-09-30T16:31:07;1.40;;;1.30;;
48040;SDS011;33815;48.386;11.738;2022-09-30T16:33:34;1.25;;;1.25;;
48040;SDS011;33815;48.386;11.738;2022-09-30T16:36:05;1.58;;;1.48;;
48040;SDS011;33815;48.386;11.738;2022-09-30T16:38:32;1.55;;;1.38;;
48040;SDS011;33815;48.386;11.738;2022-09-30T16:40:57;1.52;;;1.42;;
48040;SDS011;33815;48.386;11.738;2022-09-30T16:43:24;2.45;;;1.67;;
48040;SDS011;33815;48.386;11.738;2022-09-30T16:45:51;1.65;;;1.55;;
48040;SDS011;33815;48.386;11.738;2022-09-30T16:48:16;1.77;;;1.67;;
48040;SDS011;33815;48.386;11.738;2022-09-30T16:50:51;1.85;;;1.60;;
48040;SDS011;33815;48.386;11.738;2022-09-30T16:53:24;1.90;;;1.40;;
48040;SDS011;33815;48.386;11.738;2022-09-30T16:55:49;1.60;;;1.50;;
48040;SDS011;33815;48.386;11.738;2022-09-30T16:58:16;1.85;;;1.48;;
48040;SDS011;33815;48.386;11.738;2022-09-30T17:00:42;6.07;;;1.50;;
48040;SDS011;33815;48.386;11.738;2022-09-30T17:03:11;2.55;;;2.22;;
48040;SDS011;33815;48.386;11.738;2022-09-30T17:05:39;2.42;;;2.00;;
48040;SDS011;33815;48.386;11.738;2022-09-30T17:08:07;2.60;;;2.20;;
48040;SDS011;33815;48.386;11.738;2022-09-30T17:10:35;2.40;;;1.77;;
48040;SDS011;33815;48.386;11.738;2022-09-30T17:13:00;1.58;;;1.30;;
48040;SDS011;33815;48.386;11.738;2022-09-30T17:15:28;1.35;;;1.25;;
48040;SDS011;33815;48.386;11.738;2022-09-30T17:17:55;2.45;;;1.40;;
48040;SDS011;33815;48.386;11.738;2022-09-30T17:20:21;1.65;;;1.55;;
48040;SDS011;33815;48.386;11.738;2022-09-30T17:22:47;1.95;;;1.75;;
48040;SDS011;33815;48.386;11.738;2022-09-30T17:25:13;1.58;;;1.48;;
48040;SDS011;33815;48.386;11.738;2022-09-30T17:27:39;1.80;;;1.70;;
48040;SDS011;33815;48.386;11.738;2022-09-30T17:30:04;1.77;;;1.58;;
48040;SDS011;33815;48.386;11.738;2022-09-30T17:32:31;3.80;;;2.17;;
48040;SDS011;33815;48.386;11.738;2022-09-30T17:34:56;2.47;;;2.00;;
48040;SDS011;33815;48.386;11.738;2022-09-30T17:37:21;3.10;;;2.83;;
48040;SDS011;33815;48.386;11.738;2022-09-30T17:39:46;2.67;;;2.47;;
48040;SDS011;33815;48.386;11.738;2022-09-30T17:42:12;2.40;;;2.20;;
48040;SDS011;33815;48.386;11.738;2022-09-30T17:44:57;1.92;;;1.83;;
48040;SDS011;33815;48.386;11.738;2022-09-30T17:47:22;2.00;;;1.90;;